Flight Track Log - Related Links

Times and Time Zones

All times are in EDT time to prevent confusion due to time zone crossing. See the FLG3432 flight status page for this flight to view local times or setup timezone preferences in your user account.

Time Position Orientation Groundspeed Altitude Reporting Facility
EDT Latitude Longitude Course Direction KTS MPH feet Rate Location/Type
Wed 07:25:28 PM 40.8131 -111.9800 163° South 181 208 4,800  Level Salt Lake Center
Wed 07:26:29 PM 40.8678 -111.9842 357° North 198 228 6,200 1,333 Climbing Salt Lake Center
Wed 07:27:07 PM 40.9064 -111.9903 353° North 221 254 7,000 1,500 Climbing Salt Lake Center
Wed 07:28:00 PM 41.1283 -111.8130 108° East  Level FlightAware Approximate
Wed 07:28:09 PM 40.9822 -112.0000 354° North 268 308 8,700  Level Salt Lake Center
Wed 07:29:00 PM 41.0423 -111.7331 163° South  Level FlightAware Approximate
Wed 07:29:11 PM 41.0611 -111.9981 North 287 330 10,800  Level Salt Lake Center
Wed 07:30:00 PM 40.9322 -111.6877 163° South  Level FlightAware Approximate
Wed 07:30:13 PM 41.0725 -111.9017 81° East 302 348 12,700  Level Salt Lake Center
Wed 07:31:15 PM 40.9967 -111.8322 145° Southeast 298 343 14,300 1,258 Climbing Salt Lake Center
Wed 07:32:17 PM 40.9175 -111.7647 147° Southeast 337 388 15,300 1,171 Climbing Salt Lake Center
Wed 07:33:18 PM 40.8311 -111.6903 147° Southeast 368 423 16,700 1,268 Climbing Salt Lake Center
Wed 07:34:20 PM 40.7500 -111.5992 140° Southeast 395 455 17,900 1,306 Climbing Salt Lake Center
Wed 07:35:22 PM 40.7089 -111.4592 111° Southeast 412 474 19,400 1,452 Climbing Salt Lake Center
Wed 07:36:24 PM 40.6669 -111.3153 111° Southeast 422 486 20,900 1,500 Climbing Salt Lake Center
Wed 07:37:26 PM 40.6164 -111.1417 111° Southeast 423 487 22,500 1,355 Climbing Salt Lake Center
Wed 07:38:28 PM 40.5725 -110.9922 111° Southeast 435 501 23,700 1,113 Climbing Salt Lake Center
Wed 07:39:30 PM 40.5308 -110.8375 109° East 448 516 24,800 1,065 Climbing Salt Lake Center
Wed 07:40:32 PM 40.4964 -110.6764 106° East 458 527 25,900 976 Climbing Salt Lake Center
Wed 07:41:33 PM 40.4569 -110.4950 106° East 470 541 26,800 927 Climbing Salt Lake Center
Wed 07:42:35 PM 40.4219 -110.3347 106° East 478 550 27,800 1,016 Climbing Salt Lake Center
Wed 07:43:37 PM 40.3797 -110.1456 106° East 485 558 28,900 1,065 Climbing Salt Lake Center
Wed 07:44:39 PM 40.3433 -109.9825 106° East 487 560 30,000 1,065 Climbing Salt Lake Center
Wed 07:45:41 PM 40.2808 -109.8064 115° Southeast 483 556 31,100 1,016 Climbing Salt Lake Center
Wed 07:46:43 PM 40.1989 -109.6781 130° Southeast 480 552 32,100 1,073 Climbing Salt Lake Center
Wed 07:47:44 PM 40.1181 -109.5508 130° Southeast 477 549 33,300 1,122 Climbing Salt Lake Center
Wed 07:48:46 PM 40.0253 -109.4056 130° Southeast 468 539 34,400 950 Climbing Salt Lake Center
Wed 07:49:25 PM 39.9711 -109.3222 130° Southeast 466 536 34,900 356 Climbing Denver Center
Wed 07:50:27 PM 39.8919 -109.1972 130° Southeast 467 537 35,000 48 Climbing Denver Center
Wed 07:51:29 PM 39.7964 -109.0511 130° Southeast 474 545 35,000  Level Denver Center
Wed 07:52:31 PM 39.7150 -108.9253 130° Southeast 475 547 35,000  Level Denver Center
Wed 07:53:33 PM 39.6144 -108.7706 130° Southeast 477 549 35,000  Level Denver Center
Wed 07:54:35 PM 39.5550 -108.6789 130° Southeast 485 558 35,000  Level Denver Center
Wed 07:55:37 PM 39.4481 -108.5139 130° Southeast 471 542 35,000  Level Denver Center
Wed 07:56:39 PM 39.3706 -108.3494 121° Southeast 480 552 35,000  Level Denver Center
Wed 07:57:42 PM 39.3058 -108.2103 121° Southeast 470 541 35,000  Level Denver Center
Wed 07:58:44 PM 39.2294 -108.0464 121° Southeast 476 548 35,000  Level Denver Center
Wed 07:59:46 PM 39.1647 -107.9069 121° Southeast 475 547 35,000  Level Denver Center
Wed 08:00:48 PM 39.0883 -107.7464 121° Southeast 473 544 35,000  Level Denver Center
Wed 08:01:50 PM 39.0239 -107.6056 120° Southeast 475 547 35,000  Level Denver Center
Wed 08:02:52 PM 38.9472 -107.4439 121° Southeast 474 545 35,000  Level Denver Center
Wed 08:03:54 PM 38.8831 -107.3056 121° Southeast 472 543 35,000  Level Denver Center
Wed 08:04:56 PM 38.8172 -107.1672 121° Southeast 474 545 35,000  Level Denver Center
Wed 08:05:58 PM 38.7514 -107.0281 121° Southeast 471 542 35,000  Level Denver Center
Wed 08:07:00 PM 38.6683 -106.8586 122° Southeast 471 542 35,000  Level Denver Center
Wed 08:08:02 PM 38.5875 -106.7286 128° Southeast 468 539 35,000  Level Denver Center
Wed 08:09:04 PM 38.5067 -106.5975 128° Southeast 470 541 35,000  Level Denver Center
Wed 08:10:06 PM 38.4258 -106.4678 128° Southeast 467 537 35,000  Level Denver Center
Wed 08:11:08 PM 38.3450 -106.3394 129° Southeast 463 533 35,000  Level Denver Center
Wed 08:12:10 PM 38.2653 -106.2089 128° Southeast 466 536 35,000  Level Denver Center
Wed 08:13:12 PM 38.1706 -106.0586 129° Southeast 459 528 35,000  Level Denver Center
Wed 08:14:14 PM 38.0928 -105.9367 129° Southeast 461 531 35,000  Level Denver Center
Wed 08:15:16 PM 38.0042 -105.7950 128° Southeast 460 529 35,000  Level Denver Center
Wed 08:16:18 PM 37.9269 -105.6756 129° Southeast 458 527 35,000  Level Denver Center
Wed 08:17:20 PM 37.8381 -105.5339 128° Southeast 459 528 35,000  Level Denver Center
Wed 08:18:22 PM 37.7603 -105.4144 129° Southeast 459 528 35,000  Level Denver Center
Wed 08:19:25 PM 37.6711 -105.2758 129° Southeast 458 527 35,000  Level Denver Center
Wed 08:20:27 PM 37.5942 -105.1553 129° Southeast 460 529 35,000  Level Denver Center
Wed 08:21:29 PM 37.5047 -105.0183 129° Southeast 456 525 35,000  Level Denver Center
Wed 08:22:31 PM 37.4258 -104.8981 130° Southeast 463 533 35,000  Level Denver Center
Wed 08:23:33 PM 37.3347 -104.7581 129° Southeast 463 533 35,000  Level Denver Center
Wed 08:24:35 PM 37.2564 -104.6392 130° Southeast 464 534 35,000  Level Denver Center
Wed 08:25:37 PM 37.1650 -104.4981 129° Southeast 468 539 35,000  Level Denver Center
Wed 08:26:39 PM 37.1006 -104.3667 122° Southeast 464 534 35,000  Level Denver Center
Wed 08:27:27 PM 37.0461 -104.2575 122° Southeast 465 535 35,000  Level Albuquerque Center
Wed 08:28:29 PM 36.9700 -104.1047 122° Southeast 465 535 35,000  Level Albuquerque Center
Wed 08:29:30 PM 36.9056 -103.9758 122° Southeast 462 532 35,000  Level Albuquerque Center
Wed 08:30:32 PM 36.8297 -103.8253 122° Southeast 460 529 35,000  Level Albuquerque Center
Wed 08:31:33 PM 36.7650 -103.6981 122° Southeast 458 527 35,000  Level Albuquerque Center
Wed 08:32:34 PM 36.7000 -103.5686 122° Southeast 458 527 35,000  Level Albuquerque Center
Wed 08:33:36 PM 36.6292 -103.4283 122° Southeast 457 526 35,000  Level Albuquerque Center
Wed 08:34:37 PM 36.5603 -103.2928 122° Southeast 457 526 35,000  Level Albuquerque Center
Wed 08:35:39 PM 36.4914 -103.1589 123° Southeast 455 524 35,000  Level Albuquerque Center
Wed 08:36:40 PM 36.4231 -103.0250 122° Southeast 454 522 35,000  Level Albuquerque Center
Wed 08:37:42 PM 36.3539 -102.8908 123° Southeast 456 525 35,000  Level Albuquerque Center
Wed 08:38:43 PM 36.2864 -102.7606 123° Southeast 454 522 35,000  Level Albuquerque Center
Wed 08:39:44 PM 36.2050 -102.6028 123° Southeast 454 522 35,000  Level Albuquerque Center
Wed 08:40:46 PM 36.1361 -102.4706 123° Southeast 455 524 35,000  Level Albuquerque Center
Wed 08:41:47 PM 36.0672 -102.3406 123° Southeast 454 522 35,000  Level Albuquerque Center
Wed 08:42:48 PM 35.9992 -102.2092 123° Southeast 454 522 35,000  Level Albuquerque Center
Wed 08:43:50 PM 35.9294 -102.0778 123° Southeast 455 524 35,000  Level Albuquerque Center
Wed 08:44:51 PM 35.8608 -101.9475 123° Southeast 454 522 35,000  Level Albuquerque Center
Wed 08:45:52 PM 35.7917 -101.8161 123° Southeast 455 524 35,000  Level Albuquerque Center
Wed 08:46:54 PM 35.7222 -101.6847 123° Southeast 456 525 35,000  Level Albuquerque Center
Wed 08:47:55 PM 35.6519 -101.5539 123° Southeast 456 525 35,000  Level Albuquerque Center
Wed 08:48:57 PM 35.5803 -101.4228 124° Southeast 458 527 35,000  Level Albuquerque Center
Wed 08:49:58 PM 35.5103 -101.2917 123° Southeast 456 525 35,000  Level Albuquerque Center
Wed 08:51:00 PM 35.4244 -101.1344 124° Southeast 458 527 35,000  Level Albuquerque Center
Wed 08:52:01 PM 35.3528 -101.0036 124° Southeast 459 528 35,000  Level Albuquerque Center
Wed 08:53:02 PM 35.2814 -100.8739 124° Southeast 459 528 35,000  Level Albuquerque Center
Wed 08:54:04 PM 35.2114 -100.7436 123° Southeast 458 527 35,000  Level Albuquerque Center
Wed 08:55:05 PM 35.1392 -100.6150 124° Southeast 458 527 35,000  Level Albuquerque Center
Wed 08:56:07 PM 35.0675 -100.4853 124° Southeast 460 529 35,000  Level Albuquerque Center
Wed 08:57:08 PM 34.9886 -100.3442 124° Southeast 460 529 35,000  Level Albuquerque Center
Wed 08:58:09 PM 34.9181 -100.2158 124° Southeast 459 528 35,000  Level Albuquerque Center
Wed 08:59:11 PM 34.8458 -100.0864 124° Southeast 460 529 35,000  Level Albuquerque Center
Wed 09:00:12 PM 34.7739 -99.9575 124° Southeast 461 531 35,000  Level Albuquerque Center
Wed 09:00:57 PM 34.7108 -99.8536 126° Southeast 459 528 35,000  Level Fort Worth Center
Wed 09:01:57 PM 34.6447 -99.7106 119° Southeast 464 534 35,000  Level Fort Worth Center
Wed 09:02:57 PM 34.5906 -99.5778 116° Southeast 458 527 35,000  Level Fort Worth Center
Wed 09:03:57 PM 34.5325 -99.4403 117° Southeast 451 519 35,000 -100 Level Fort Worth Center
Wed 09:04:57 PM 34.4719 -99.3053 119° Southeast 451 519 34,800 -600 Descending Fort Worth Center
Wed 09:05:57 PM 34.4133 -99.1706 118° Southeast 456 525 33,800 -950 Descending Fort Worth Center
Wed 09:06:57 PM 34.3608 -99.0539 119° Southeast 446 513 32,900 -950 Descending Fort Worth Center
Wed 09:07:57 PM 34.3061 -98.9269 118° Southeast 439 505 31,900 -1,000 Descending Fort Worth Center
Wed 09:08:57 PM 34.2450 -98.7903 118° Southeast 439 505 30,900 -1,000 Descending Fort Worth Center
Wed 09:09:57 PM 34.1881 -98.6589 118° Southeast 445 512 29,900 -1,050 Descending Fort Worth Center
Wed 09:10:57 PM 34.1078 -98.5297 127° Southeast 459 528 28,800 -1,600 Descending Fort Worth Center
Wed 09:11:57 PM 34.0233 -98.3883 126° Southeast 466 536 26,700 -2,100 Descending Fort Worth Center
Wed 09:12:57 PM 33.9533 -98.2672 125° Southeast 461 531 24,600 -2,100 Descending Fort Worth Center
Wed 09:13:57 PM 33.8811 -98.1514 127° Southeast 447 514 22,500 -2,050 Descending Fort Worth Center
Wed 09:14:57 PM 33.8169 -98.0511 128° Southeast 436 502 20,500 -2,000 Descending Fort Worth Center
Wed 09:15:57 PM 33.7486 -97.9406 127° Southeast 422 486 18,500 -2,250 Descending Fort Worth Center
Wed 09:16:57 PM 33.6758 -97.8253 127° Southeast 409 471 16,000 -2,250 Descending Fort Worth Center
Wed 09:17:57 PM 33.6117 -97.7228 127° Southeast 404 465 14,000 -2,350 Descending Fort Worth Center
Wed 09:18:57 PM 33.5469 -97.6228 128° Southeast 383 441 11,300 -1,750 Descending Fort Worth Center
Wed 09:19:57 PM 33.4908 -97.5356 128° Southeast 349 402 10,500 -1,100 Descending Fort Worth Center
Wed 09:20:57 PM 33.4367 -97.4558 129° Southeast 319 367 9,100 -750 Descending Fort Worth Center
Wed 09:21:57 PM 33.3739 -97.3936 140° Southeast 291 335 9,000 -250 Descending Fort Worth Center
Wed 09:22:57 PM 33.3217 -97.3189 130° Southeast 291 335 8,600 -750 Descending Fort Worth Center
Wed 09:23:57 PM 33.2925 -97.2394 114° Southeast 291 335 7,500 -900 Descending Fort Worth Center
Wed 09:24:57 PM 33.2569 -97.1450 114° Southeast 286 329 6,800 -900 Descending Fort Worth Center
Wed 09:25:57 PM 33.2294 -97.0683 113° Southeast 281 323 5,700 -1,300 Descending Fort Worth Center
Wed 09:26:57 PM 33.1625 -97.0264 152° Southeast 252 290 4,200 -1,350 Descending Fort Worth Center
Wed 09:27:57 PM 33.1000 -97.0267 180° South 246 283 3,000 -700 Descending Fort Worth Center
Wed 09:28:57 PM 33.0331 -97.0294 182° South 231 266 2,800 -200 Descending Fort Worth Center

Login

Don't have an account? Register now (free) for customized features, flight alerts, and more!